Time;durP1;ratioP1;P1;durP2;ratioP2;P2;SDS_P1;SDS_P2;PMS_P1;PMS_P2;Temp;Humidity;BMP_temperature;BMP_pressure;BME280_temperature;BME280_humidity;BME280_pressure;Samples;Min_cycle;Max_cycle;Signal;HPM_P1;HPM_P2
2022/08/16 00:01:57;;;;;;;37.08;27.77;;;18.20;99.90;;;;;;5035918;28;20021;-70
2022/08/16 00:04:22;;;;;;;38.35;26.75;;;18.20;99.90;;;;;;5053631;28;20094;-70
2022/08/16 00:06:48;;;;;;;36.60;27.45;;;18.20;99.90;;;;;;5053492;28;20029;-70
2022/08/16 00:09:14;;;;;;;32.45;26.02;;;18.10;99.90;;;;;;5053106;28;20100;-70
2022/08/16 00:11:41;;;;;;;35.22;26.25;;;18.10;99.90;;;;;;5052212;28;20033;-70
2022/08/16 00:14:12;;;;;;;31.48;26.73;;;18.20;99.90;;;;;;5054521;28;20504;-69
2022/08/16 00:16:38;;;;;;;36.58;28.00;;;18.10;99.90;;;;;;5057644;28;20025;-70
2022/08/16 00:19:04;;;;;;;34.55;27.50;;;18.10;99.90;;;;;;5057326;28;20032;-70
2022/08/16 00:21:31;;;;;;;33.40;25.08;;;18.20;99.90;;;;;;5057596;28;20029;-70
2022/08/16 00:23:57;;;;;;;32.28;26.20;;;18.10;99.90;;;;;;5057686;28;20116;-70
2022/08/16 00:26:24;;;;;;;35.13;26.08;;;18.00;99.90;;;;;;5057297;28;20036;-70
2022/08/16 00:28:49;;;;;;;34.40;26.27;;;18.00;99.90;;;;;;5055927;28;20108;-70
2022/08/16 00:31:15;;;;;;;41.17;29.50;;;17.90;99.90;;;;;;5057080;28;20060;-70
2022/08/16 00:33:41;;;;;;;38.35;29.55;;;17.80;99.90;;;;;;5056340;28;20028;-69
2022/08/16 00:36:06;;;;;;;38.25;27.92;;;17.80;99.90;;;;;;5057021;28;20033;-70
2022/08/16 00:38:32;;;;;;;34.88;26.77;;;17.80;99.90;;;;;;5056829;28;20447;-70
2022/08/16 00:40:59;;;;;;;40.45;29.45;;;17.70;99.90;;;;;;5057203;28;20029;-70
2022/08/16 00:43:34;;;;;;;37.08;28.17;;;17.70;99.90;;;;;;5057033;28;20420;-70
2022/08/16 00:46:24;;;;;;;36.22;28.88;;;17.60;99.90;;;;;;5055770;28;20033;-69
2022/08/16 00:48:51;;;;;;;56.28;39.13;;;17.60;99.90;;;;;;5056960;28;20033;-70
2022/08/16 00:51:20;;;;;;;51.42;37.40;;;17.60;99.90;;;;;;5056849;28;20108;-70
2022/08/16 00:53:47;;;;;;;45.95;34.13;;;17.60;99.90;;;;;;5056752;28;20021;-70
2022/08/16 00:56:17;;;;;;;36.92;30.70;;;17.60;99.90;;;;;;5056591;28;20021;-70
2022/08/16 00:58:45;;;;;;;39.40;29.13;;;17.60;99.90;;;;;;5057024;28;20029;-70
2022/08/16 01:01:12;;;;;;;38.30;28.35;;;17.50;99.90;;;;;;5054829;28;20044;-69
2022/08/16 01:03:40;;;;;;;41.30;30.73;;;17.50;99.90;;;;;;5055744;28;20108;-70
2022/08/16 01:06:06;;;;;;;38.10;28.23;;;17.40;99.90;;;;;;5056521;28;20025;-70
2022/08/16 01:08:35;;;;;;;36.78;26.65;;;17.40;99.90;;;;;;5056241;28;20111;-70
2022/08/16 01:11:01;;;;;;;36.80;28.40;;;17.30;99.90;;;;;;5056700;28;20484;-70
2022/08/16 01:13:31;;;;;;;42.25;31.00;;;17.30;99.90;;;;;;5056655;28;20473;-70
2022/08/16 01:16:04;;;;;;;36.53;28.08;;;17.30;99.90;;;;;;5055383;28;20048;-70
2022/08/16 01:18:51;;;;;;;37.45;29.52;;;17.30;99.90;;;;;;5056150;28;20024;-70
2022/08/16 01:21:45;;;;;;;39.95;29.92;;;17.20;99.90;;;;;;5056213;28;20029;-70
2022/08/16 01:24:27;;;;;;;39.95;28.85;;;17.20;99.90;;;;;;5056209;28;20025;-70
2022/08/16 01:27:03;;;;;;;49.47;31.33;;;17.20;99.90;;;;;;5056080;28;20051;-70
2022/08/16 01:29:40;;;;;;;38.78;29.33;;;17.20;99.90;;;;;;5054491;28;20024;-70
2022/08/16 01:32:06;;;;;;;43.63;30.92;;;17.20;99.90;;;;;;5054200;28;20029;-70
2022/08/16 01:34:31;;;;;;;44.97;31.20;;;17.20;99.90;;;;;;5055908;28;20047;-70
2022/08/16 01:37:01;;;;;;;47.67;32.05;;;17.10;99.90;;;;;;5055849;28;20025;-70
2022/08/16 01:39:27;;;;;;;46.30;34.33;;;17.10;99.90;;;;;;5055624;28;20409;-70
2022/08/16 01:41:53;;;;;;;46.83;35.13;;;17.10;99.90;;;;;;5056118;28;20057;-71
2022/08/16 01:44:18;;;;;;;60.80;41.38;;;17.10;99.90;;;;;;5055745;28;20067;-71
2022/08/16 01:46:46;;;;;;;54.30;38.85;;;17.00;99.90;;;;;;5055552;28;20017;-70
2022/08/16 01:49:20;;;;;;;44.53;34.17;;;17.00;99.90;;;;;;5054497;28;20025;-70
2022/08/16 01:51:49;;;;;;;;;;;17.00;99.90;;;;;;5055961;28;20045;-70
2022/08/16 01:54:14;;;;;;;48.78;35.00;;;16.90;99.90;;;;;;5055550;28;19951;-70
2022/08/16 01:56:40;;;;;;;47.13;35.00;;;16.90;99.90;;;;;;5054278;28;20056;-70
2022/08/16 01:59:09;;;;;;;50.45;36.97;;;16.90;99.90;;;;;;5055342;28;20040;-71
2022/08/16 02:01:35;;;;;;;46.63;33.83;;;16.80;99.90;;;;;;5055405;28;20049;-71
2022/08/16 02:04:02;;;;;;;54.30;35.50;;;16.80;99.90;;;;;;5055091;28;20021;-68
2022/08/16 02:06:28;;;;;;;48.17;34.03;;;16.80;99.90;;;;;;5054857;28;20377;-70
2022/08/16 02:08:54;;;;;;;44.83;33.13;;;16.70;99.90;;;;;;5055089;28;20029;-71
2022/08/16 02:11:21;;;;;;;52.28;36.33;;;16.70;99.90;;;;;;5055444;28;20104;-71
2022/08/16 02:13:47;;;;;;;46.63;33.63;;;16.70;99.90;;;;;;5055223;28;20385;-71
2022/08/16 02:16:12;;;;;;;51.50;35.67;;;16.70;99.90;;;;;;5054970;28;20028;-71
2022/08/16 02:18:39;;;;;;;57.28;38.65;;;16.70;99.90;;;;;;5055075;28;20079;-70
2022/08/16 02:21:07;;;;;;;60.10;40.72;;;16.60;99.90;;;;;;5054238;28;20043;-70
2022/08/16 02:23:35;;;;;;;52.50;37.40;;;16.60;99.90;;;;;;5054995;28;20511;-71
2022/08/16 02:26:01;;;;;;;45.53;34.30;;;16.60;99.90;;;;;;5054878;28;20033;-70
2022/08/16 02:28:26;;;;;;;47.42;36.13;;;16.60;99.90;;;;;;5055245;28;20369;-71
2022/08/16 02:30:55;;;;;;;49.05;35.15;;;16.60;99.90;;;;;;5054873;28;20101;-70
2022/08/16 02:33:21;;;;;;;55.88;41.25;;;16.50;99.90;;;;;;5054893;28;20021;-71
2022/08/16 02:35:47;;;;;;;84.05;52.13;;;16.50;99.90;;;;;;5053509;28;20033;-70
2022/08/16 02:38:13;;;;;;;72.95;46.13;;;16.50;99.90;;;;;;5054454;28;20028;-70
2022/08/16 02:40:38;;;;;;;80.30;50.72;;;16.40;99.90;;;;;;5054611;28;20146;-70
2022/08/16 02:43:05;;;;;;;80.15;53.90;;;16.50;99.90;;;;;;5054691;28;20021;-70
2022/08/16 02:45:31;;;;;;;77.68;52.30;;;16.70;99.90;;;;;;5054796;28;20021;-71
2022/08/16 02:47:57;;;;;;;74.93;45.20;;;16.80;99.90;;;;;;5054882;28;20028;-71
2022/08/16 02:50:23;;;;;;;69.05;46.15;;;16.80;99.90;;;;;;5054253;28;20035;-70
2022/08/16 02:52:49;;;;;;;86.10;51.58;;;16.80;99.90;;;;;;5053319;28;20100;-70
2022/08/16 02:55:15;;;;;;;82.13;52.92;;;16.90;99.90;;;;;;5054425;28;20442;-70
2022/08/16 02:57:41;;;;;;;88.30;54.50;;;16.90;99.90;;;;;;5054590;28;20155;-70
2022/08/16 03:00:11;;;;;;;110.80;61.50;;;17.00;99.90;;;;;;5054264;28;20519;-71
2022/08/16 03:02:36;;;;;;;92.75;54.85;;;17.10;99.90;;;;;;5054278;28;20432;-71
2022/08/16 03:05:03;;;;;;;72.22;47.63;;;17.10;99.90;;;;;;5054040;28;20025;-70
2022/08/16 03:07:29;;;;;;;98.30;55.47;;;17.10;99.90;;;;;;5053986;28;20382;-71
2022/08/16 03:09:55;;;;;;;90.45;53.33;;;17.10;99.90;;;;;;5053298;28;20033;-71
2022/08/16 03:12:22;;;;;;;77.88;49.83;;;17.10;99.90;;;;;;5054106;28;20070;-71
2022/08/16 03:14:48;;;;;;;75.88;46.25;;;17.00;99.90;;;;;;5053979;28;20017;-71
2022/08/16 03:17:14;;;;;;;69.47;46.17;;;17.00;99.90;;;;;;5054065;28;20029;-72
2022/08/16 03:19:39;;;;;;;61.28;39.88;;;16.90;99.90;;;;;;5053881;28;20063;-70
2022/08/16 03:22:05;;;;;;;57.03;40.08;;;16.90;99.90;;;;;;5053155;28;20509;-70
2022/08/16 03:24:31;;;;;;;55.40;38.10;;;16.80;99.90;;;;;;5054816;28;20036;-71
2022/08/16 03:26:58;;;;;;;62.60;43.90;;;16.80;99.90;;;;;;5053812;28;20025;-71
2022/08/16 03:29:30;;;;;;;60.47;39.40;;;16.80;99.90;;;;;;5053624;28;20112;-71
2022/08/16 03:31:57;;;;;;;54.95;37.92;;;16.80;99.90;;;;;;5053794;28;20056;-70
2022/08/16 03:34:22;;;;;;;50.67;34.95;;;16.70;99.90;;;;;;5053795;28;20028;-71
2022/08/16 03:36:48;;;;;;;56.20;35.30;;;16.60;99.90;;;;;;5052811;28;20021;-71
2022/08/16 03:39:14;;;;;;;54.17;36.55;;;16.50;99.90;;;;;;5053558;28;20505;-71
2022/08/16 03:41:40;;;;;;;56.10;37.15;;;16.50;99.90;;;;;;5053529;28;20381;-71
2022/08/16 03:44:06;;;;;;;47.95;34.45;;;16.50;99.90;;;;;;5053718;28;20381;-71
2022/08/16 03:46:33;;;;;;;53.92;36.42;;;16.50;99.90;;;;;;5053573;28;20500;-71
2022/08/16 03:48:59;;;;;;;54.22;36.78;;;16.50;99.90;;;;;;5051484;28;20094;-71
2022/08/16 03:51:25;;;;;;;55.72;39.33;;;16.60;99.90;;;;;;5053762;28;20053;-71
2022/08/16 03:53:50;;;;;;;56.08;37.90;;;16.60;99.90;;;;;;5053487;28;20112;-70
2022/08/16 03:56:16;;;;;;;63.92;42.53;;;16.70;99.90;;;;;;5053462;28;20148;-71
2022/08/16 03:58:42;;;;;;;72.65;45.75;;;16.80;99.90;;;;;;5053501;28;20021;-70
2022/08/16 04:01:08;;;;;;;61.90;41.20;;;16.90;99.90;;;;;;5053676;28;20029;-71
2022/08/16 04:03:34;;;;;;;67.45;44.00;;;16.90;99.90;;;;;;5052209;28;20082;-71
2022/08/16 04:05:59;;;;;;;78.25;47.65;;;17.00;99.90;;;;;;5053562;28;20033;-71
2022/08/16 04:08:25;;;;;;;72.88;44.60;;;17.10;99.90;;;;;;5053153;28;20029;-70
2022/08/16 04:10:53;;;;;;;68.75;42.95;;;17.20;99.90;;;;;;5053288;28;20017;-71
2022/08/16 04:13:20;;;;;;;57.65;38.90;;;17.30;99.90;;;;;;5053332;28;20020;-71
2022/08/16 04:15:46;;;;;;;79.35;49.28;;;17.30;99.90;;;;;;5053252;28;20017;-71
2022/08/16 04:18:12;;;;;;;62.30;42.65;;;17.30;99.90;;;;;;5052277;28;20056;-71
2022/08/16 04:20:38;;;;;;;66.75;43.92;;;17.30;99.90;;;;;;5052140;28;20068;-70
2022/08/16 04:23:06;;;;;;;67.70;45.50;;;17.50;99.90;;;;;;5053129;28;20078;-71
2022/08/16 04:25:32;;;;;;;72.80;45.25;;;17.50;99.90;;;;;;5053204;28;20361;-71
2022/08/16 04:27:58;;;;;;;95.20;57.17;;;17.60;99.90;;;;;;5053034;28;20029;-71
2022/08/16 04:30:24;;;;;;;80.43;47.75;;;17.60;99.90;;;;;;5053296;28;20231;-71
2022/08/16 04:32:49;;;;;;;75.07;46.10;;;17.80;99.90;;;;;;5052134;28;20036;-71
2022/08/16 04:35:17;;;;;;;71.28;43.55;;;17.80;99.90;;;;;;5053026;28;20031;-71
2022/08/16 04:37:45;;;;;;;65.82;42.00;;;17.90;99.90;;;;;;5052899;28;20036;-71
2022/08/16 04:40:12;;;;;;;61.85;38.42;;;18.00;99.90;;;;;;5052855;28;20067;-71
2022/08/16 04:42:39;;;;;;;58.58;39.83;;;18.10;99.90;;;;;;5053262;28;20028;-71
2022/08/16 04:45:06;;;;;;;60.00;39.42;;;18.30;99.90;;;;;;5051904;28;20017;-70
2022/08/16 04:47:32;;;;;;;64.15;41.33;;;18.20;99.90;;;;;;5052878;28;20029;-71
2022/08/16 04:49:58;;;;;;;66.03;39.50;;;18.40;99.90;;;;;;5053028;28;20056;-71
2022/08/16 04:52:24;;;;;;;57.50;37.92;;;18.40;99.90;;;;;;5053166;28;20053;-70
2022/08/16 04:54:49;;;;;;;58.13;36.38;;;18.60;99.90;;;;;;5052860;28;20022;-71
2022/08/16 04:57:15;;;;;;;78.20;50.05;;;18.60;99.90;;;;;;5053152;28;20040;-71
2022/08/16 04:59:41;;;;;;;68.63;40.90;;;18.70;99.90;;;;;;5052924;28;20033;-71
2022/08/16 05:02:06;;;;;;;51.58;36.70;;;18.70;99.90;;;;;;5055817;28;20032;-71
2022/08/16 05:04:32;;;;;;;87.05;54.15;;;18.80;99.90;;;;;;5056647;28;20047;-71
2022/08/16 05:06:58;;;;;;;60.88;39.42;;;18.90;99.90;;;;;;5038683;28;20025;-71
2022/08/16 05:09:23;;;;;;;53.80;34.10;;;18.90;99.90;;;;;;5056233;28;20036;-71
2022/08/16 05:11:49;;;;;;;76.70;43.28;;;18.90;99.90;;;;;;5056247;28;20013;-71
2022/08/16 05:14:15;;;;;;;63.72;38.83;;;18.90;99.90;;;;;;5055499;28;20381;-71
2022/08/16 05:16:41;;;;;;;69.07;42.63;;;18.90;99.90;;;;;;5056838;28;20104;-71
2022/08/16 05:19:07;;;;;;;56.92;38.92;;;18.90;99.90;;;;;;5056276;28;20544;-71
2022/08/16 05:21:34;;;;;;;81.65;49.13;;;18.90;99.90;;;;;;5056465;28;20121;-72
2022/08/16 05:24:00;;;;;;;82.00;51.25;;;18.90;99.90;;;;;;5056686;28;20381;-72
2022/08/16 05:26:27;;;;;;;91.90;55.75;;;18.90;99.90;;;;;;5055972;28;20447;-71
2022/08/16 05:28:54;;;;;;;79.60;49.20;;;18.90;99.90;;;;;;5054165;28;20405;-71
2022/08/16 05:31:19;;;;;;;77.65;50.85;;;18.90;99.90;;;;;;5056850;28;20424;-71
2022/08/16 05:33:45;;;;;;;72.13;48.13;;;19.00;99.90;;;;;;5055776;28;20055;-69
2022/08/16 05:36:11;;;;;;;70.25;45.42;;;19.00;99.90;;;;;;5055477;28;20106;-71
2022/08/16 05:38:36;;;;;;;67.53;43.05;;;19.10;99.90;;;;;;5055881;28;20029;-71
2022/08/16 05:41:03;;;;;;;65.93;48.30;;;19.20;99.90;;;;;;5055666;28;20032;-71
2022/08/16 05:43:29;;;;;;;45.78;33.33;;;19.20;99.90;;;;;;5055986;28;20079;-71
2022/08/16 05:45:57;;;;;;;53.92;35.65;;;19.30;99.90;;;;;;5055760;28;20017;-71
2022/08/16 05:48:23;;;;;;;69.65;48.55;;;19.40;99.90;;;;;;5054488;28;20247;-73
2022/08/16 05:50:48;;;;;;;63.70;37.00;;;19.50;99.90;;;;;;5053882;28;20032;-72
2022/08/16 05:53:14;;;;;;;42.88;30.67;;;19.60;99.90;;;;;;5055292;28;20096;-72
2022/08/16 05:55:39;;;;;;;41.90;24.98;;;19.60;99.90;;;;;;5055860;28;20029;-72
2022/08/16 05:58:05;;;;;;;37.22;26.27;;;19.70;99.90;;;;;;5053969;28;20096;-72
2022/08/16 06:00:31;;;;;;;34.08;23.95;;;19.70;99.90;;;;;;5054812;28;20036;-72
2022/08/16 06:02:56;;;;;;;41.83;31.10;;;19.80;99.90;;;;;;5055701;28;20036;-72
2022/08/16 06:05:23;;;;;;;28.17;19.65;;;19.90;99.90;;;;;;5055423;28;20021;-72
2022/08/16 06:07:49;;;;;;;41.00;24.25;;;20.00;99.90;;;;;;5055347;28;20036;-72
2022/08/16 06:10:15;;;;;;;54.90;25.63;;;20.00;99.90;;;;;;5054367;28;20062;-72
2022/08/16 06:12:41;;;;;;;43.60;21.90;;;20.00;99.90;;;;;;5054344;28;20424;-72
2022/08/16 06:15:16;;;;;;;22.48;15.75;;;20.10;99.90;;;;;;5055576;28;20028;-72
2022/08/16 06:17:43;;;;;;;27.95;17.13;;;20.10;99.90;;;;;;5053234;28;20021;-72
2022/08/16 06:20:10;;;;;;;21.20;14.77;;;20.20;99.90;;;;;;5053146;28;20025;-72
2022/08/16 06:22:37;;;;;;;27.10;17.52;;;20.30;99.90;;;;;;5051419;28;20028;-72
2022/08/16 06:25:03;;;;;;;32.15;18.45;;;20.30;99.90;;;;;;5036634;28;20029;-72
2022/08/16 06:27:29;;;;;;;28.40;18.98;;;20.40;99.90;;;;;;5055050;28;20025;-72
2022/08/16 06:29:54;;;;;;;25.35;16.52;;;20.40;99.90;;;;;;5054871;28;20453;-72
2022/08/16 06:32:20;;;;;;;40.03;25.80;;;20.50;99.90;;;;;;5055044;28;20043;-72
2022/08/16 06:34:46;;;;;;;28.95;16.55;;;20.50;99.90;;;;;;5055005;28;20516;-72
2022/08/16 06:37:11;;;;;;;24.67;17.92;;;20.70;99.90;;;;;;5053924;28;20025;-71
2022/08/16 06:39:38;;;;;;;23.27;16.75;;;20.70;99.90;;;;;;5054784;28;20451;-72
2022/08/16 06:42:04;;;;;;;25.40;17.05;;;20.70;99.90;;;;;;5054776;28;20044;-72
2022/08/16 06:44:29;;;;;;;17.50;12.05;;;20.90;99.90;;;;;;5054909;28;20108;-72
2022/08/16 06:46:55;;;;;;;21.30;12.75;;;21.10;99.90;;;;;;5054758;28;20060;-72
2022/08/16 06:49:21;;;;;;;18.65;11.10;;;21.10;99.90;;;;;;5053523;28;20033;-71
2022/08/16 06:51:46;;;;;;;17.98;9.80;;;21.20;99.90;;;;;;5055167;28;20021;-72
2022/08/16 06:54:12;;;;;;;20.80;10.32;;;21.30;99.90;;;;;;5054602;28;20029;-72
2022/08/16 06:56:38;;;;;;;20.73;10.55;;;21.30;99.90;;;;;;5054414;28;20021;-72
2022/08/16 06:59:04;;;;;;;16.00;10.35;;;21.50;99.90;;;;;;5054459;28;20025;-72
2022/08/16 07:01:29;;;;;;;15.15;9.82;;;21.40;99.90;;;;;;5054484;28;20496;-72
2022/08/16 07:03:55;;;;;;;17.88;9.55;;;21.50;99.90;;;;;;5053214;28;20055;-72
2022/08/16 07:06:21;;;;;;;11.32;7.85;;;21.60;99.90;;;;;;5052600;28;20029;-72
2022/08/16 07:08:47;;;;;;;18.25;9.77;;;21.70;99.90;;;;;;5054143;28;20029;-72
2022/08/16 07:11:15;;;;;;;14.50;7.85;;;21.80;99.90;;;;;;5054093;28;20017;-72
2022/08/16 07:13:41;;;;;;;15.48;8.40;;;21.90;99.90;;;;;;5054298;28;20029;-72
2022/08/16 07:16:13;;;;;;;20.40;9.13;;;22.00;99.90;;;;;;5054583;28;20025;-71
2022/08/16 07:18:40;;;;;;;15.85;8.63;;;22.00;99.90;;;;;;5053064;28;20025;-71
2022/08/16 07:21:07;;;;;;;15.82;8.23;;;22.00;99.90;;;;;;5054440;28;20021;-71
2022/08/16 07:23:32;;;;;;;16.83;8.40;;;22.10;99.90;;;;;;5053861;28;20040;-71
2022/08/16 07:25:58;;;;;;;12.85;9.13;;;22.10;99.90;;;;;;5054538;28;20060;-71
2022/08/16 07:28:24;;;;;;;16.20;8.55;;;22.10;99.90;;;;;;5053909;28;20025;-71
2022/08/16 07:30:49;;;;;;;20.73;9.20;;;22.20;99.90;;;;;;5053906;28;20025;-71
2022/08/16 07:33:17;;;;;;;16.58;7.85;;;22.30;99.90;;;;;;5053114;28;20400;-71
2022/08/16 07:35:43;;;;;;;14.82;8.30;;;22.30;99.90;;;;;;5054056;28;20021;-72
2022/08/16 07:38:08;;;;;;;20.30;9.20;;;22.40;99.90;;;;;;5053592;28;20025;-72
2022/08/16 07:40:35;;;;;;;21.42;10.20;;;22.40;99.90;;;;;;5063856;22;20685;-68
2022/08/16 07:43:01;;;;;;;24.05;10.88;;;22.40;99.90;;;;;;5032711;28;20469;-68
2022/08/16 07:45:27;;;;;;;14.73;10.38;;;22.40;99.90;;;;;;5033433;28;20028;-68
2022/08/16 07:47:53;;;;;;;27.23;12.05;;;22.40;99.90;;;;;;5033812;28;20033;-68
2022/08/16 07:50:19;;;;;;;14.43;8.88;;;22.40;99.90;;;;;;5033344;28;20040;-68
2022/08/16 07:52:45;;;;;;;21.67;10.77;;;22.60;99.90;;;;;;5032635;28;20511;-68
2022/08/16 07:55:12;;;;;;;19.67;11.95;;;22.60;99.90;;;;;;5033690;28;20022;-68
2022/08/16 07:57:39;;;;;;;28.38;13.05;;;22.70;99.90;;;;;;5033457;28;20025;-68
2022/08/16 08:00:06;;;;;;;21.55;10.80;;;22.70;99.90;;;;;;5032876;28;20029;-68
2022/08/16 08:02:32;;;;;;;17.88;11.23;;;22.70;99.90;;;;;;5032759;28;20036;-69
2022/08/16 08:04:58;;;;;;;16.67;10.05;;;23.00;99.90;;;;;;5033324;28;20021;-69
2022/08/16 08:07:23;;;;;;;22.75;11.57;;;23.10;99.90;;;;;;5033349;28;20051;-69
2022/08/16 08:09:50;;;;;;;28.67;11.32;;;23.20;99.90;;;;;;5033158;28;20025;-68
2022/08/16 08:12:18;;;;;;;23.70;11.02;;;23.00;99.90;;;;;;5030878;28;20056;-68
2022/08/16 08:14:44;;;;;;;18.15;9.48;;;23.00;99.90;;;;;;5033302;28;20025;-69
2022/08/16 08:17:10;;;;;;;23.48;10.55;;;23.00;99.90;;;;;;5033396;28;20029;-68
2022/08/16 08:19:36;;;;;;;19.33;9.40;;;23.20;99.90;;;;;;5033208;28;20032;-69
2022/08/16 08:22:03;;;;;;;24.00;10.80;;;23.30;99.90;;;;;;5033114;28;20535;-68
2022/08/16 08:24:31;;;;;;;23.75;10.70;;;23.40;99.90;;;;;;5033078;28;20030;-68
2022/08/16 08:26:58;;;;;;;15.95;9.05;;;23.40;99.90;;;;;;5032181;28;20374;-68
2022/08/16 08:29:24;;;;;;;16.90;9.77;;;23.40;99.90;;;;;;5032853;28;20397;-68
2022/08/16 08:31:50;;;;;;;20.75;9.90;;;23.60;99.90;;;;;;5032053;28;20021;-68
2022/08/16 08:34:17;;;;;;;19.25;9.23;;;23.70;99.90;;;;;;5033877;28;20021;-68
2022/08/16 08:36:42;;;;;;;12.63;7.95;;;23.60;99.90;;;;;;5037293;28;20025;-68
2022/08/16 08:39:08;;;;;;;13.82;7.40;;;23.70;99.90;;;;;;5036862;28;20496;-68
2022/08/16 08:41:34;;;;;;;15.65;8.63;;;23.70;99.90;;;;;;5036011;28;20040;-68
2022/08/16 08:44:00;;;;;;;15.55;7.28;;;23.70;99.90;;;;;;5034612;28;20393;-68
2022/08/16 08:46:26;;;;;;;21.10;9.88;;;23.80;99.90;;;;;;5036054;28;20030;-68
2022/08/16 08:48:53;;;;;;;16.77;8.43;;;23.90;99.90;;;;;;5036744;28;20036;-68
2022/08/16 08:51:19;;;;;;;20.42;9.10;;;23.90;99.90;;;;;;5036556;28;20052;-68
2022/08/16 08:53:45;;;;;;;19.40;9.38;;;24.00;99.90;;;;;;5036665;28;20037;-68
2022/08/16 08:56:12;;;;;;;13.15;5.45;;;24.20;99.90;;;;;;5034212;28;20493;-68
2022/08/16 08:58:38;;;;;;;15.10;6.65;;;24.20;99.90;;;;;;5035872;28;20026;-68
2022/08/16 09:01:06;;;;;;;18.55;6.32;;;24.30;99.90;;;;;;5019046;28;20025;-68
2022/08/16 09:03:32;;;;;;;16.50;7.45;;;24.50;99.90;;;;;;5036659;28;20404;-68
2022/08/16 09:05:58;;;;;;;14.20;7.20;;;24.70;99.90;;;;;;5036699;28;20432;-68
2022/08/16 09:08:25;;;;;;;14.20;6.35;;;24.80;99.90;;;;;;5036369;28;20025;-69
2022/08/16 09:10:54;;;;;;;11.77;5.28;;;25.10;99.90;;;;;;5035210;28;20036;-68
2022/08/16 09:13:20;;;;;;;18.98;6.80;;;25.50;99.90;;;;;;5036552;28;20026;-69
2022/08/16 09:15:47;;;;;;;15.38;5.60;;;25.60;99.90;;;;;;5036227;28;20017;-67
2022/08/16 09:18:15;;;;;;;9.98;5.88;;;26.10;99.90;;;;;;5036128;28;20055;-67
2022/08/16 09:20:41;;;;;;;13.85;5.10;;;26.40;99.90;;;;;;5036347;28;20030;-67
2022/08/16 09:23:07;;;;;;;9.95;5.40;;;26.60;99.90;;;;;;5036331;28;20057;-67
2022/08/16 09:25:33;;;;;;;13.50;4.97;;;26.70;99.90;;;;;;5031401;28;20075;-68
2022/08/16 09:27:59;;;;;;;10.65;5.10;;;26.70;99.90;;;;;;5036214;28;20030;-68
2022/08/16 09:30:25;;;;;;;16.63;5.13;;;26.70;99.90;;;;;;5035752;28;20125;-69
2022/08/16 09:32:53;;;;;;;16.05;5.25;;;26.80;99.90;;;;;;5036262;28;20428;-69
2022/08/16 09:35:22;;;;;;;10.27;4.65;;;27.00;99.90;;;;;;5035425;28;20029;-69
2022/08/16 09:37:47;;;;;;;14.30;6.30;;;27.00;99.90;;;;;;5035908;28;20083;-67
2022/08/16 09:40:13;;;;;;;10.55;5.55;;;27.00;99.90;;;;;;5034634;28;20104;-67
2022/08/16 09:42:39;;;;;;;12.23;5.18;;;27.00;99.90;;;;;;5035402;28;20029;-68
2022/08/16 09:45:07;;;;;;;12.38;5.45;;;27.00;99.90;;;;;;5034640;28;20044;-67
2022/08/16 09:47:38;;;;;;;10.60;5.55;;;26.80;99.90;;;;;;5035680;28;20026;-67
2022/08/16 09:50:05;;;;;;;21.92;7.03;;;26.80;99.90;;;;;;5035536;28;20396;-67
2022/08/16 09:52:31;;;;;;;13.07;6.65;;;26.60;99.90;;;;;;5035661;28;20100;-68
2022/08/16 09:54:56;;;;;;;15.35;6.70;;;26.50;99.90;;;;;;5035489;28;20535;-68
2022/08/16 09:57:22;;;;;;;9.73;6.57;;;26.40;99.90;;;;;;5034672;28;20029;-68
2022/08/16 09:59:47;;;;;;;11.80;6.38;;;26.40;99.90;;;;;;5034649;28;20117;-68
2022/08/16 10:02:13;;;;;;;13.40;6.97;;;26.50;99.90;;;;;;5035384;28;20470;-68
2022/08/16 10:04:39;;;;;;;15.70;5.63;;;26.80;99.90;;;;;;5035293;28;20047;-67
2022/08/16 10:07:04;;;;;;;9.70;6.85;;;26.80;99.90;;;;;;5035262;28;20026;-67
2022/08/16 10:09:30;;;;;;;16.67;7.70;;;26.80;99.90;;;;;;5035112;28;20504;-67
2022/08/16 10:14:41;;;;;;;14.55;7.00;;;27.10;99.90;;;;;;5034229;28;20060;-68
2022/08/16 10:17:07;;;;;;;12.98;6.75;;;27.40;99.90;;;;;;5035171;28;20024;-68
2022/08/16 10:19:32;;;;;;;11.98;7.05;;;27.60;99.90;;;;;;5035111;28;20393;-68
2022/08/16 10:21:58;;;;;;;17.60;8.77;;;27.80;99.90;;;;;;5035118;28;20102;-68
2022/08/16 10:24:24;;;;;;;13.48;7.88;;;27.90;99.90;;;;;;5035280;28;20029;-68
2022/08/16 10:26:51;;;;;;;12.10;6.35;;;27.90;99.90;;;;;;5034863;28;20025;-67
2022/08/16 10:29:17;;;;;;;12.82;6.63;;;27.90;99.90;;;;;;5033807;28;20413;-68
2022/08/16 10:31:43;;;;;;;11.65;5.97;;;28.00;99.90;;;;;;5033365;28;20030;-68
2022/08/16 10:34:08;;;;;;;16.13;6.68;;;28.00;99.90;;;;;;5034296;28;20030;-68
2022/08/16 10:36:34;;;;;;;21.77;9.52;;;27.80;99.90;;;;;;5034716;28;20021;-68
2022/08/16 10:39:00;;;;;;;17.15;7.65;;;27.90;99.90;;;;;;5034961;28;20057;-67
2022/08/16 10:41:25;;;;;;;15.75;8.50;;;27.90;99.90;;;;;;5034375;28;20489;-68
2022/08/16 10:43:51;;;;;;;20.35;9.43;;;27.70;99.90;;;;;;5034643;28;20044;-67
2022/08/16 10:46:17;;;;;;;10.50;8.00;;;27.70;99.90;;;;;;5033565;28;20033;-68
2022/08/16 10:48:44;;;;;;;21.77;9.10;;;27.70;99.90;;;;;;5030785;28;20026;-67
2022/08/16 10:51:11;;;;;;;17.90;9.55;;;27.80;99.90;;;;;;5034682;28;20049;-67
2022/08/16 10:53:38;;;;;;;12.45;8.15;;;27.90;99.90;;;;;;5034424;28;20048;-67
2022/08/16 10:56:11;;;;;;;14.80;9.23;;;28.10;99.90;;;;;;5034683;28;20029;-67
2022/08/16 10:58:39;;;;;;;11.60;8.05;;;28.20;99.90;;;;;;5034167;28;20025;-67
2022/08/16 11:01:05;;;;;;;15.38;7.32;;;28.20;99.90;;;;;;5034434;28;20397;-67
2022/08/16 11:03:32;;;;;;;17.45;7.70;;;28.50;99.90;;;;;;5033205;28;20033;-68
2022/08/16 11:05:58;;;;;;;11.60;7.07;;;28.60;99.90;;;;;;5033839;28;20033;-67
2022/08/16 11:08:24;;;;;;;12.18;6.55;;;28.70;99.90;;;;;;5034416;28;20025;-67
2022/08/16 11:10:49;;;;;;;12.65;7.00;;;28.60;99.90;;;;;;5033986;28;20021;-68
2022/08/16 11:13:20;;;;;;;20.40;7.47;;;28.80;99.90;;;;;;5016207;28;20032;-68
2022/08/16 11:15:46;;;;;;;16.30;7.85;;;28.90;99.90;;;;;;5034061;28;20052;-68
2022/08/16 11:18:13;;;;;;;15.95;6.20;;;28.60;99.90;;;;;;5033193;28;20148;-68
2022/08/16 11:20:40;;;;;;;11.57;6.68;;;28.60;99.90;;;;;;5034126;28;20030;-68
2022/08/16 11:23:06;;;;;;;19.05;8.23;;;28.20;99.90;;;;;;5033868;28;20109;-68
2022/08/16 11:25:32;;;;;;;15.15;6.78;;;28.00;99.90;;;;;;5033861;28;20475;-68
2022/08/16 11:27:59;;;;;;;12.18;8.68;;;27.90;99.90;;;;;;5034324;28;20032;-68
2022/08/16 11:30:26;;;;;;;19.65;9.52;;;28.10;99.90;;;;;;5033668;28;20033;-67
2022/08/16 11:32:52;;;;;;;15.50;9.52;;;28.30;99.90;;;;;;5032643;28;20064;-68
2022/08/16 11:35:22;;;;;;;16.88;8.82;;;28.40;99.90;;;;;;5032955;28;20436;-68
2022/08/16 11:38:05;;;;;;;18.45;9.98;;;28.60;99.90;;;;;;5033644;28;20025;-68
2022/08/16 11:40:36;;;;;;;16.83;8.80;;;28.30;99.90;;;;;;5033405;28;20492;-68
2022/08/16 11:43:02;;;;;;;14.10;7.45;;;28.30;99.90;;;;;;5033554;28;20036;-68
2022/08/16 11:45:28;;;;;;;13.35;6.75;;;28.50;99.90;;;;;;5033827;28;20029;-68
2022/08/16 11:47:54;;;;;;;16.90;6.30;;;28.70;99.90;;;;;;5033457;28;20025;-68
2022/08/16 11:50:22;;;;;;;10.75;7.00;;;29.10;99.90;;;;;;5031997;28;20389;-68
2022/08/16 11:52:47;;;;;;;10.80;6.82;;;29.40;99.90;;;;;;5033681;28;20041;-68
2022/08/16 11:55:13;;;;;;;11.05;6.35;;;29.60;99.90;;;;;;5033493;28;20491;-68
2022/08/16 11:57:39;;;;;;;12.40;6.47;;;29.90;99.90;;;;;;5033295;28;20135;-68
2022/08/16 12:00:11;;;;;;;13.55;7.05;;;30.00;99.90;;;;;;5033647;28;20405;-68
2022/08/16 12:02:37;;;;;;;12.82;7.68;;;30.10;99.90;;;;;;5033348;28;20021;-69
2022/08/16 12:05:05;;;;;;;14.40;7.22;;;29.80;99.90;;;;;;5033606;28;20385;-69
2022/08/16 12:07:31;;;;;;;14.40;6.80;;;29.70;99.90;;;;;;5032497;28;20032;-70
2022/08/16 12:09:57;;;;;;;11.77;6.68;;;30.00;99.90;;;;;;5032338;28;20030;-69
2022/08/16 12:12:22;;;;;;;13.57;6.10;;;30.30;99.90;;;;;;5033100;28;20021;-70
2022/08/16 12:14:48;;;;;;;11.63;6.72;;;30.40;99.90;;;;;;5033774;28;20026;-70
2022/08/16 12:17:14;;;;;;;20.73;7.65;;;30.20;99.90;;;;;;5033467;28;20446;-69
2022/08/16 12:19:40;;;;;;;16.25;5.95;;;29.90;99.90;;;;;;5033219;28;20101;-69
2022/08/16 12:22:06;;;;;;;13.05;5.78;;;30.40;99.90;;;;;;5032523;28;20107;-70
2022/08/16 12:24:32;;;;;;;12.98;6.60;;;30.90;99.90;;;;;;5033126;28;20393;-70
2022/08/16 12:26:59;;;;;;;11.70;6.50;;;30.90;99.90;;;;;;5032872;28;20469;-70
2022/08/16 12:29:24;;;;;;;9.52;5.55;;;31.00;99.90;;;;;;5031877;28;20140;-70
2022/08/16 12:31:50;;;;;;;8.50;5.10;;;31.10;99.90;;;;;;5027792;28;20485;-70